Friday, October 24, 2014
14:46 UTC
  |  Log In   |  Register Free
Airport Search:

Orlando Sanford International Airport
(KSFB)

FAA data valid effective September 18, 2014 - November 13, 2014 (unless otherwise noted).

 
 
 
 
 
 
 
 
 
 
 
 
 
 

Current Aviation Weather for Orlando Sanford International Airport (KSFB)

The most recent METAR observation for KSFB was updated at: 1415
METAR Summary (Translated METAR)
KSFB
241353Z 02007KT 10SM CLR 22/14 A3001 RMK AO2 SLP161 T02220139
KORL
241353Z 01007KT 10SM FEW034 21/14 A3001 RMK AO2 SLP166 T02110144
(14.8 nm SW from KSFB)
KDED
241355Z AUTO 02006KT 10SM CLR 20/13 A3003 RMK AO1
(17.6 nm NW from KSFB)
TAF Summary (Translated TAF)
KSFB
241137Z 2412/2512 36007KT P6SM SCT040 FM241400 04010KT P6SM FEW035 FEW250 FM250000 01007KT P6SM FEW250
  Airport Weather Conditions for KSFB

 Current Weather at SFB
72° F
Fair
North winds at 8.1 mph
SFB NOAA Radar

Pressure: 30.01 in
Humidity: 59%
Wind: North at 8.1 MPH (7 KT)
Dew Point: 57.0°F
Visibility: 10.00 mi


Airport Weather Forecast for KSFB

Translated METAR and TAF for KSFB
Translated METAR for KSFB (1441 UTC 24 October 2014)
found at http://aviationweather.gov/adds/metars/
 
METAR text: KSFB 241353Z 02007KT 10SM CLR 22/14 A3001 RMK AO2 SLP161 T02220139
Conditions at: KSFB (SANFORD/ORLANDO , FL, US) observed 1353 UTC 24 October 2014
Temperature: 22.2°C (72°F)
Dewpoint: 13.9°C (57°F) [RH = 59%]
Pressure (altimeter): 30.01 inches Hg (1016.3 mb)
[Sea-level pressure: 1016.1 mb]
Winds: from the NNE (20 degrees) at 8 MPH (7 knots; 3.6 m/s)
Visibility: 10 or more miles (16+ km)
Ceiling: at least 12,000 feet AGL
Clouds: sky clear below 12,000 feet AGL
Weather: no significant weather observed at this time
Translated TAF for KSFB
Forecast for: KSFB (SANFORD/ORLANDO , FL, US)
TAF Text: KSFB 241137Z 2412/2512 36007KT P6SM SCT040
Forecast period: 1200 to 1400 UTC 24 October 2014
Forecast type: FROM: standard forecast or significant change
Winds: from the N (360 degrees) at 8 MPH (7 knots; 3.6 m/s)
Visibility: 6 or more miles (10+ km)
Clouds: scattered clouds at 4000 feet AGL
Weather: no significant weather forecast for this period
TAF Text: FM241400 04010KT P6SM FEW035 FEW250
Forecast period: 1400 UTC 24 October 2014 to 0000 UTC 25 October 2014
Forecast type: FROM: standard forecast or significant change
Winds: from the NE (40 degrees) at 12 MPH (10 knots; 5.2 m/s)
Visibility: 6 or more miles (10+ km)
Clouds: few clouds at 3500 feet AGL
few clouds at 25000 feet AGL
Weather: no significant weather forecast for this period
TAF Text: FM250000 01007KT P6SM FEW250
Forecast period: 0000 to 1200 UTC 25 October 2014
Forecast type: FROM: standard forecast or significant change
Winds: from the N (10 degrees) at 8 MPH (7 knots; 3.6 m/s)
Visibility: 6 or more miles (10+ km)
Clouds: few clouds at 25000 feet AGL
Weather: no significant weather forecast for this period

Find All Airport Services Find A Hotel Find A Rental Car Find A Golf Course Find A Restaurant $100 Hamburger



FBO's on the Field
FBO Company Facility Photos Services Transportation Aviation Fuel Prices: Prices include tax
Catering Weather Repair Courtesy Rental Type 100LL JetA JetA+ MOGAS 8087
 
StarPort

StarPort logo
Currently rated 3.8 by 7 people
FS:
Last Updated: Oct-20
Login to update fuel prices
SS:
Contact StarPortMore FBO Information
 
Million Air Sanford

Currently rated 3.6 by 3 people
FS:Avfuel
Last Updated: Oct-13
Login to update fuel prices
SS:
Contact Million Air SanfordMore FBO Information
 
Add another FBO Facility Photos Catering Weather Repair Courtesy Rental Type 100LL JetA JetA+ MOGAS 8087
Services Transportation Aviation Fuel Prices: Prices include tax


model-print
model-print
model-print
model-print